sensor_id;sensor_type;location;lat;lon;timestamp;P1;durP1;ratioP1;P2;durP2;ratioP2
14007;SDS011;61651;45.508;12.232;2022-08-24T00:01:06;4.40;;;3.25;;
14007;SDS011;61651;45.508;12.232;2022-08-24T00:04:10;3.90;;;3.10;;
14007;SDS011;61651;45.508;12.232;2022-08-24T00:07:13;3.65;;;2.95;;
14007;SDS011;61651;45.508;12.232;2022-08-24T00:10:16;3.70;;;2.85;;
14007;SDS011;61651;45.508;12.232;2022-08-24T00:13:19;4.07;;;3.13;;
14007;SDS011;61651;45.508;12.232;2022-08-24T00:16:21;3.40;;;3.10;;
14007;SDS011;61651;45.508;12.232;2022-08-24T00:19:24;4.13;;;2.63;;
14007;SDS011;61651;45.508;12.232;2022-08-24T00:22:28;3.53;;;3.15;;
14007;SDS011;61651;45.508;12.232;2022-08-24T00:25:30;3.33;;;3.03;;
14007;SDS011;61651;45.508;12.232;2022-08-24T00:28:33;4.05;;;3.20;;
14007;SDS011;61651;45.508;12.232;2022-08-24T00:31:36;3.22;;;2.80;;
14007;SDS011;61651;45.508;12.232;2022-08-24T00:34:38;3.42;;;3.13;;
14007;SDS011;61651;45.508;12.232;2022-08-24T00:37:41;3.15;;;2.80;;
14007;SDS011;61651;45.508;12.232;2022-08-24T00:40:44;6.10;;;2.70;;
14007;SDS011;61651;45.508;12.232;2022-08-24T00:43:51;3.55;;;3.25;;
14007;SDS011;61651;45.508;12.232;2022-08-24T00:46:56;3.50;;;2.97;;
14007;SDS011;61651;45.508;12.232;2022-08-24T00:50:03;3.58;;;2.80;;
14007;SDS011;61651;45.508;12.232;2022-08-24T00:53:11;4.63;;;2.70;;
14007;SDS011;61651;45.508;12.232;2022-08-24T00:56:18;3.30;;;3.00;;
14007;SDS011;61651;45.508;12.232;2022-08-24T00:59:24;2.90;;;2.65;;
14007;SDS011;61651;45.508;12.232;2022-08-24T01:02:29;2.78;;;2.58;;
14007;SDS011;61651;45.508;12.232;2022-08-24T01:05:34;2.58;;;2.35;;
14007;SDS011;61651;45.508;12.232;2022-08-24T01:08:39;6.30;;;2.72;;
14007;SDS011;61651;45.508;12.232;2022-08-24T01:11:41;3.15;;;2.80;;
14007;SDS011;61651;45.508;12.232;2022-08-24T01:14:44;2.67;;;2.47;;
14007;SDS011;61651;45.508;12.232;2022-08-24T01:17:47;2.97;;;2.50;;
14007;SDS011;61651;45.508;12.232;2022-08-24T01:21:09;3.45;;;3.15;;
14007;SDS011;61651;45.508;12.232;2022-08-24T01:24:17;3.10;;;2.80;;
14007;SDS011;61651;45.508;12.232;2022-08-24T01:27:19;4.50;;;2.50;;
14007;SDS011;61651;45.508;12.232;2022-08-24T01:30:22;3.05;;;2.75;;
14007;SDS011;61651;45.508;12.232;2022-08-24T01:33:25;2.65;;;2.45;;
14007;SDS011;61651;45.508;12.232;2022-08-24T01:36:30;2.75;;;2.50;;
14007;SDS011;61651;45.508;12.232;2022-08-24T01:39:36;2.90;;;2.70;;
14007;SDS011;61651;45.508;12.232;2022-08-24T01:42:45;2.67;;;2.47;;
14007;SDS011;61651;45.508;12.232;2022-08-24T01:45:48;2.58;;;2.33;;
14007;SDS011;61651;45.508;12.232;2022-08-24T01:48:50;3.70;;;2.65;;
14007;SDS011;61651;45.508;12.232;2022-08-24T01:51:53;2.70;;;2.50;;
14007;SDS011;61651;45.508;12.232;2022-08-24T01:54:57;2.67;;;2.47;;
14007;SDS011;61651;45.508;12.232;2022-08-24T01:57:59;2.58;;;2.38;;
14007;SDS011;61651;45.508;12.232;2022-08-24T02:01:01;2.90;;;2.60;;
14007;SDS011;61651;45.508;12.232;2022-08-24T02:04:04;3.15;;;2.80;;
14007;SDS011;61651;45.508;12.232;2022-08-24T02:07:07;3.13;;;2.83;;
14007;SDS011;61651;45.508;12.232;2022-08-24T02:10:12;2.47;;;2.28;;
14007;SDS011;61651;45.508;12.232;2022-08-24T02:13:15;2.78;;;2.22;;
14007;SDS011;61651;45.508;12.232;2022-08-24T02:16:17;2.70;;;2.50;;
14007;SDS011;61651;45.508;12.232;2022-08-24T02:19:19;2.72;;;2.45;;
14007;SDS011;61651;45.508;12.232;2022-08-24T02:22:21;2.30;;;2.10;;
14007;SDS011;61651;45.508;12.232;2022-08-24T02:25:24;4.80;;;2.13;;
14007;SDS011;61651;45.508;12.232;2022-08-24T02:28:29;2.60;;;2.40;;
14007;SDS011;61651;45.508;12.232;2022-08-24T02:31:31;3.05;;;2.55;;
14007;SDS011;61651;45.508;12.232;2022-08-24T02:34:35;3.03;;;2.30;;
14007;SDS011;61651;45.508;12.232;2022-08-24T02:37:37;2.17;;;2.05;;
14007;SDS011;61651;45.508;12.232;2022-08-24T02:40:40;3.90;;;2.50;;
14007;SDS011;61651;45.508;12.232;2022-08-24T02:43:43;2.28;;;2.13;;
14007;SDS011;61651;45.508;12.232;2022-08-24T02:46:45;2.63;;;2.42;;
14007;SDS011;61651;45.508;12.232;2022-08-24T02:49:47;2.50;;;2.20;;
14007;SDS011;61651;45.508;12.232;2022-08-24T02:52:49;2.38;;;2.15;;
14007;SDS011;61651;45.508;12.232;2022-08-24T02:55:52;2.97;;;2.42;;
14007;SDS011;61651;45.508;12.232;2022-08-24T02:58:54;2.20;;;2.10;;
14007;SDS011;61651;45.508;12.232;2022-08-24T03:01:56;2.63;;;2.20;;
14007;SDS011;61651;45.508;12.232;2022-08-24T03:04:58;2.83;;;2.38;;
14007;SDS011;61651;45.508;12.232;2022-08-24T03:08:01;2.58;;;2.20;;
14007;SDS011;61651;45.508;12.232;2022-08-24T03:11:05;2.83;;;2.47;;
14007;SDS011;61651;45.508;12.232;2022-08-24T03:14:07;2.30;;;2.10;;
14007;SDS011;61651;45.508;12.232;2022-08-24T03:17:09;3.25;;;2.38;;
14007;SDS011;61651;45.508;12.232;2022-08-24T03:20:13;2.85;;;2.30;;
14007;SDS011;61651;45.508;12.232;2022-08-24T03:23:18;2.20;;;2.00;;
14007;SDS011;61651;45.508;12.232;2022-08-24T03:26:21;2.28;;;1.90;;
14007;SDS011;61651;45.508;12.232;2022-08-24T03:29:23;2.30;;;2.10;;
14007;SDS011;61651;45.508;12.232;2022-08-24T03:32:25;4.13;;;2.47;;
14007;SDS011;61651;45.508;12.232;2022-08-24T03:35:27;3.13;;;2.30;;
14007;SDS011;61651;45.508;12.232;2022-08-24T03:38:29;2.50;;;2.30;;
14007;SDS011;61651;45.508;12.232;2022-08-24T03:41:33;2.75;;;2.30;;
14007;SDS011;61651;45.508;12.232;2022-08-24T03:44:35;4.57;;;2.47;;
14007;SDS011;61651;45.508;12.232;2022-08-24T03:47:37;2.45;;;2.25;;
14007;SDS011;61651;45.508;12.232;2022-08-24T03:50:39;3.00;;;2.28;;
14007;SDS011;61651;45.508;12.232;2022-08-24T03:53:45;2.38;;;2.17;;
14007;SDS011;61651;45.508;12.232;2022-08-24T03:56:48;4.60;;;2.53;;
14007;SDS011;61651;45.508;12.232;2022-08-24T03:59:50;3.78;;;2.05;;
14007;SDS011;61651;45.508;12.232;2022-08-24T04:02:53;2.33;;;2.13;;
14007;SDS011;61651;45.508;12.232;2022-08-24T04:05:55;2.28;;;2.08;;
14007;SDS011;61651;45.508;12.232;2022-08-24T04:08:57;2.97;;;2.78;;
14007;SDS011;61651;45.508;12.232;2022-08-24T04:12:01;2.72;;;2.53;;
14007;SDS011;61651;45.508;12.232;2022-08-24T04:15:03;3.25;;;2.72;;
14007;SDS011;61651;45.508;12.232;2022-08-24T04:18:06;3.63;;;2.30;;
14007;SDS011;61651;45.508;12.232;2022-08-24T04:21:14;3.90;;;2.80;;
14007;SDS011;61651;45.508;12.232;2022-08-24T04:24:17;2.92;;;2.72;;
14007;SDS011;61651;45.508;12.232;2022-08-24T04:27:21;4.68;;;2.38;;
14007;SDS011;61651;45.508;12.232;2022-08-24T04:30:24;2.63;;;2.42;;
14007;SDS011;61651;45.508;12.232;2022-08-24T04:33:26;3.38;;;2.70;;
14007;SDS011;61651;45.508;12.232;2022-08-24T04:36:28;4.32;;;2.78;;
14007;SDS011;61651;45.508;12.232;2022-08-24T04:39:31;4.25;;;2.60;;
14007;SDS011;61651;45.508;12.232;2022-08-24T04:42:35;3.30;;;2.78;;
14007;SDS011;61651;45.508;12.232;2022-08-24T04:45:37;3.38;;;2.50;;
14007;SDS011;61651;45.508;12.232;2022-08-24T04:48:40;3.58;;;2.55;;
14007;SDS011;61651;45.508;12.232;2022-08-24T04:51:43;6.20;;;2.40;;
14007;SDS011;61651;45.508;12.232;2022-08-24T04:54:45;2.17;;;1.98;;
14007;SDS011;61651;45.508;12.232;2022-08-24T04:57:48;6.15;;;2.88;;
14007;SDS011;61651;45.508;12.232;2022-08-24T05:00:50;3.05;;;2.50;;
14007;SDS011;61651;45.508;12.232;2022-08-24T05:03:54;2.88;;;2.47;;
14007;SDS011;61651;45.508;12.232;2022-08-24T05:06:57;3.55;;;2.17;;
14007;SDS011;61651;45.508;12.232;2022-08-24T05:09:59;3.13;;;2.65;;
14007;SDS011;61651;45.508;12.232;2022-08-24T05:13:03;4.53;;;3.60;;
14007;SDS011;61651;45.508;12.232;2022-08-24T05:16:05;3.17;;;2.85;;
14007;SDS011;61651;45.508;12.232;2022-08-24T05:19:08;4.18;;;3.13;;
14007;SDS011;61651;45.508;12.232;2022-08-24T05:22:11;3.08;;;2.70;;
14007;SDS011;61651;45.508;12.232;2022-08-24T05:25:13;2.67;;;2.47;;
14007;SDS011;61651;45.508;12.232;2022-08-24T05:28:16;3.60;;;2.80;;
14007;SDS011;61651;45.508;12.232;2022-08-24T05:31:22;4.07;;;3.10;;
14007;SDS011;61651;45.508;12.232;2022-08-24T05:34:27;3.10;;;2.80;;
14007;SDS011;61651;45.508;12.232;2022-08-24T05:37:29;4.85;;;3.33;;
14007;SDS011;61651;45.508;12.232;2022-08-24T05:40:31;3.67;;;3.28;;
14007;SDS011;61651;45.508;12.232;2022-08-24T05:43:35;3.50;;;3.15;;
14007;SDS011;61651;45.508;12.232;2022-08-24T05:46:37;4.10;;;3.25;;
14007;SDS011;61651;45.508;12.232;2022-08-24T05:49:39;3.72;;;3.33;;
14007;SDS011;61651;45.508;12.232;2022-08-24T05:52:42;3.63;;;2.97;;
14007;SDS011;61651;45.508;12.232;2022-08-24T05:55:44;4.57;;;3.70;;
14007;SDS011;61651;45.508;12.232;2022-08-24T05:58:47;4.50;;;4.10;;
14007;SDS011;61651;45.508;12.232;2022-08-24T06:01:50;4.28;;;3.70;;
14007;SDS011;61651;45.508;12.232;2022-08-24T06:04:52;5.35;;;4.50;;
14007;SDS011;61651;45.508;12.232;2022-08-24T06:07:54;5.10;;;4.20;;
14007;SDS011;61651;45.508;12.232;2022-08-24T06:10:56;4.72;;;4.25;;
14007;SDS011;61651;45.508;12.232;2022-08-24T06:14:02;4.43;;;4.03;;
14007;SDS011;61651;45.508;12.232;2022-08-24T06:17:06;4.68;;;4.25;;
14007;SDS011;61651;45.508;12.232;2022-08-24T06:20:09;4.38;;;3.97;;
14007;SDS011;61651;45.508;12.232;2022-08-24T06:23:11;4.43;;;4.03;;
14007;SDS011;61651;45.508;12.232;2022-08-24T06:26:13;5.55;;;4.47;;
14007;SDS011;61651;45.508;12.232;2022-08-24T06:29:35;4.22;;;3.80;;
14007;SDS011;61651;45.508;12.232;2022-08-24T06:32:37;4.80;;;4.40;;
14007;SDS011;61651;45.508;12.232;2022-08-24T06:35:39;4.50;;;4.10;;
14007;SDS011;61651;45.508;12.232;2022-08-24T06:38:41;4.72;;;3.40;;
14007;SDS011;61651;45.508;12.232;2022-08-24T06:41:43;3.90;;;3.60;;
14007;SDS011;61651;45.508;12.232;2022-08-24T06:44:46;4.28;;;3.97;;
14007;SDS011;61651;45.508;12.232;2022-08-24T06:47:48;8.50;;;3.55;;
14007;SDS011;61651;45.508;12.232;2022-08-24T06:50:51;4.85;;;2.70;;
14007;SDS011;61651;45.508;12.232;2022-08-24T06:53:54;3.10;;;2.90;;
14007;SDS011;61651;45.508;12.232;2022-08-24T06:56:56;4.22;;;2.67;;
14007;SDS011;61651;45.508;12.232;2022-08-24T07:00:00;3.42;;;2.30;;
14007;SDS011;61651;45.508;12.232;2022-08-24T07:03:03;2.83;;;2.60;;
14007;SDS011;61651;45.508;12.232;2022-08-24T07:06:06;3.88;;;2.50;;
14007;SDS011;61651;45.508;12.232;2022-08-24T07:09:09;3.28;;;2.58;;
14007;SDS011;61651;45.508;12.232;2022-08-24T07:12:11;5.60;;;2.50;;
14007;SDS011;61651;45.508;12.232;2022-08-24T07:15:14;2.70;;;2.30;;
14007;SDS011;61651;45.508;12.232;2022-08-24T07:18:18;3.75;;;2.28;;
14007;SDS011;61651;45.508;12.232;2022-08-24T07:21:21;3.10;;;2.83;;
14007;SDS011;61651;45.508;12.232;2022-08-24T07:24:23;3.92;;;2.05;;
14007;SDS011;61651;45.508;12.232;2022-08-24T07:27:25;2.00;;;1.90;;
14007;SDS011;61651;45.508;12.232;2022-08-24T07:30:29;2.30;;;1.70;;
14007;SDS011;61651;45.508;12.232;2022-08-24T07:33:31;2.25;;;2.05;;
14007;SDS011;61651;45.508;12.232;2022-08-24T07:36:34;2.00;;;1.90;;
14007;SDS011;61651;45.508;12.232;2022-08-24T07:39:37;2.70;;;1.85;;
14007;SDS011;61651;45.508;12.232;2022-08-24T07:42:38;3.55;;;2.00;;
14007;SDS011;61651;45.508;12.232;2022-08-24T07:45:42;2.00;;;1.80;;
14007;SDS011;61651;45.508;12.232;2022-08-24T07:48:45;2.20;;;2.00;;
14007;SDS011;61651;45.508;12.232;2022-08-24T07:51:47;2.50;;;2.30;;
14007;SDS011;61651;45.508;12.232;2022-08-24T07:54:52;4.05;;;2.38;;
14007;SDS011;61651;45.508;12.232;2022-08-24T07:57:54;2.38;;;2.17;;
14007;SDS011;61651;45.508;12.232;2022-08-24T08:01:00;1.83;;;1.70;;
14007;SDS011;61651;45.508;12.232;2022-08-24T08:04:04;2.88;;;1.80;;
14007;SDS011;61651;45.508;12.232;2022-08-24T08:07:06;1.85;;;1.60;;
14007;SDS011;61651;45.508;12.232;2022-08-24T08:10:09;2.50;;;1.65;;
14007;SDS011;61651;45.508;12.232;2022-08-24T08:13:12;2.17;;;1.88;;
14007;SDS011;61651;45.508;12.232;2022-08-24T08:16:15;2.70;;;1.60;;
14007;SDS011;61651;45.508;12.232;2022-08-24T08:19:20;1.80;;;1.70;;
14007;SDS011;61651;45.508;12.232;2022-08-24T08:22:22;2.15;;;1.63;;
14007;SDS011;61651;45.508;12.232;2022-08-24T08:25:46;2.40;;;1.83;;
14007;SDS011;61651;45.508;12.232;2022-08-24T08:28:49;2.38;;;1.60;;
14007;SDS011;61651;45.508;12.232;2022-08-24T08:31:52;3.42;;;1.50;;
14007;SDS011;61651;45.508;12.232;2022-08-24T08:34:54;2.10;;;1.40;;
14007;SDS011;61651;45.508;12.232;2022-08-24T08:37:56;1.73;;;1.40;;
14007;SDS011;61651;45.508;12.232;2022-08-24T08:41:02;1.92;;;1.25;;
14007;SDS011;61651;45.508;12.232;2022-08-24T08:44:14;1.80;;;1.70;;
14007;SDS011;61651;45.508;12.232;2022-08-24T08:47:37;1.50;;;1.40;;
14007;SDS011;61651;45.508;12.232;2022-08-24T08:54:37;1.58;;;1.48;;
14007;SDS011;61651;45.508;12.232;2022-08-24T08:57:47;1.55;;;1.45;;
14007;SDS011;61651;45.508;12.232;2022-08-24T09:01:04;1.50;;;1.40;;
14007;SDS011;61651;45.508;12.232;2022-08-24T09:04:19;1.95;;;1.67;;
14007;SDS011;61651;45.508;12.232;2022-08-24T09:07:40;1.70;;;1.60;;
14007;SDS011;61651;45.508;12.232;2022-08-24T09:10:54;2.20;;;1.52;;
14007;SDS011;61651;45.508;12.232;2022-08-24T09:14:08;2.80;;;1.52;;
14007;SDS011;61651;45.508;12.232;2022-08-24T09:17:41;1.63;;;1.52;;
14007;SDS011;61651;45.508;12.232;2022-08-24T09:20:59;1.63;;;1.52;;
14007;SDS011;61651;45.508;12.232;2022-08-24T09:24:20;1.60;;;1.48;;
14007;SDS011;61651;45.508;12.232;2022-08-24T09:27:48;1.60;;;1.50;;
14007;SDS011;61651;45.508;12.232;2022-08-24T09:31:04;3.72;;;1.30;;
14007;SDS011;61651;45.508;12.232;2022-08-24T09:34:44;1.30;;;1.20;;
14007;SDS011;61651;45.508;12.232;2022-08-24T09:37:59;5.50;;;1.80;;
14007;SDS011;61651;45.508;12.232;2022-08-24T09:41:13;2.22;;;1.50;;
14007;SDS011;61651;45.508;12.232;2022-08-24T09:48:10;1.88;;;1.30;;
14007;SDS011;61651;45.508;12.232;2022-08-24T09:55:42;2.60;;;1.50;;
14007;SDS011;61651;45.508;12.232;2022-08-24T09:58:59;2.90;;;1.50;;
14007;SDS011;61651;45.508;12.232;2022-08-24T10:02:19;2.08;;;1.40;;
14007;SDS011;61651;45.508;12.232;2022-08-24T10:05:41;1.40;;;1.30;;
14007;SDS011;61651;45.508;12.232;2022-08-24T10:08:59;1.50;;;1.40;;
14007;SDS011;61651;45.508;12.232;2022-08-24T10:12:15;1.52;;;1.40;;
14007;SDS011;61651;45.508;12.232;2022-08-24T10:15:26;1.50;;;1.40;;
14007;SDS011;61651;45.508;12.232;2022-08-24T10:18:34;1.30;;;1.20;;
14007;SDS011;61651;45.508;12.232;2022-08-24T10:21:45;1.33;;;1.23;;
14007;SDS011;61651;45.508;12.232;2022-08-24T10:25:02;1.40;;;1.30;;
14007;SDS011;61651;45.508;12.232;2022-08-24T10:28:21;2.65;;;1.50;;
14007;SDS011;61651;45.508;12.232;2022-08-24T10:31:47;1.40;;;1.30;;
14007;SDS011;61651;45.508;12.232;2022-08-24T10:35:02;1.45;;;1.35;;
14007;SDS011;61651;45.508;12.232;2022-08-24T10:38:25;1.50;;;1.40;;
14007;SDS011;61651;45.508;12.232;2022-08-24T10:45:51;3.83;;;1.70;;
14007;SDS011;61651;45.508;12.232;2022-08-24T10:53:24;3.55;;;1.50;;
14007;SDS011;61651;45.508;12.232;2022-08-24T10:56:29;1.55;;;1.40;;
14007;SDS011;61651;45.508;12.232;2022-08-24T10:59:40;1.67;;;1.58;;
14007;SDS011;61651;45.508;12.232;2022-08-24T11:03:03;1.92;;;1.83;;
14007;SDS011;61651;45.508;12.232;2022-08-24T11:06:12;2.03;;;1.60;;
14007;SDS011;61651;45.508;12.232;2022-08-24T11:09:16;1.95;;;1.70;;
14007;SDS011;61651;45.508;12.232;2022-08-24T11:12:26;1.55;;;1.45;;
14007;SDS011;61651;45.508;12.232;2022-08-24T11:15:29;1.98;;;1.38;;
14007;SDS011;61651;45.508;12.232;2022-08-24T11:18:49;1.65;;;1.55;;
14007;SDS011;61651;45.508;12.232;2022-08-24T11:21:53;2.20;;;1.63;;
14007;SDS011;61651;45.508;12.232;2022-08-24T11:24:57;1.67;;;1.58;;
14007;SDS011;61651;45.508;12.232;2022-08-24T11:28:02;2.95;;;1.50;;
14007;SDS011;61651;45.508;12.232;2022-08-24T11:31:09;1.45;;;1.30;;
14007;SDS011;61651;45.508;12.232;2022-08-24T11:34:15;2.00;;;1.70;;
14007;SDS011;61651;45.508;12.232;2022-08-24T11:37:21;2.80;;;2.53;;
14007;SDS011;61651;45.508;12.232;2022-08-24T11:40:25;1.90;;;1.73;;
14007;SDS011;61651;45.508;12.232;2022-08-24T11:43:34;3.22;;;1.40;;
14007;SDS011;61651;45.508;12.232;2022-08-24T11:46:55;2.17;;;1.40;;
14007;SDS011;61651;45.508;12.232;2022-08-24T11:50:07;1.70;;;1.60;;
14007;SDS011;61651;45.508;12.232;2022-08-24T11:53:23;2.97;;;1.80;;
14007;SDS011;61651;45.508;12.232;2022-08-24T11:56:37;2.05;;;1.50;;
14007;SDS011;61651;45.508;12.232;2022-08-24T11:59:44;1.77;;;1.58;;
14007;SDS011;61651;45.508;12.232;2022-08-24T12:02:52;2.03;;;1.88;;
14007;SDS011;61651;45.508;12.232;2022-08-24T12:06:05;2.10;;;1.77;;
14007;SDS011;61651;45.508;12.232;2022-08-24T12:09:19;1.63;;;1.52;;
14007;SDS011;61651;45.508;12.232;2022-08-24T12:12:31;1.65;;;1.55;;
14007;SDS011;61651;45.508;12.232;2022-08-24T12:15:40;1.80;;;1.70;;
14007;SDS011;61651;45.508;12.232;2022-08-24T12:18:48;2.42;;;2.08;;
14007;SDS011;61651;45.508;12.232;2022-08-24T12:21:57;2.22;;;1.70;;
14007;SDS011;61651;45.508;12.232;2022-08-24T12:25:02;3.40;;;1.60;;
14007;SDS011;61651;45.508;12.232;2022-08-24T12:28:27;1.60;;;1.50;;
14007;SDS011;61651;45.508;12.232;2022-08-24T12:31:35;2.15;;;1.70;;
14007;SDS011;61651;45.508;12.232;2022-08-24T12:34:44;3.10;;;1.67;;
14007;SDS011;61651;45.508;12.232;2022-08-24T12:37:52;1.98;;;1.70;;
14007;SDS011;61651;45.508;12.232;2022-08-24T12:41:00;1.67;;;1.58;;
14007;SDS011;61651;45.508;12.232;2022-08-24T12:44:06;2.25;;;2.10;;
14007;SDS011;61651;45.508;12.232;2022-08-24T12:47:16;3.63;;;1.52;;
14007;SDS011;61651;45.508;12.232;2022-08-24T12:50:22;2.08;;;1.88;;
14007;SDS011;61651;45.508;12.232;2022-08-24T12:53:40;2.00;;;1.80;;
14007;SDS011;61651;45.508;12.232;2022-08-24T12:57:01;2.40;;;1.67;;
14007;SDS011;61651;45.508;12.232;2022-08-24T13:00:17;3.08;;;1.60;;
14007;SDS011;61651;45.508;12.232;2022-08-24T13:03:23;2.33;;;1.88;;
14007;SDS011;61651;45.508;12.232;2022-08-24T13:06:35;2.75;;;1.60;;
14007;SDS011;61651;45.508;12.232;2022-08-24T13:09:42;1.60;;;1.50;;
14007;SDS011;61651;45.508;12.232;2022-08-24T13:12:51;1.75;;;1.65;;
14007;SDS011;61651;45.508;12.232;2022-08-24T13:16:08;1.75;;;1.65;;
14007;SDS011;61651;45.508;12.232;2022-08-24T13:19:11;4.35;;;1.95;;
14007;SDS011;61651;45.508;12.232;2022-08-24T13:22:37;1.67;;;1.58;;
14007;SDS011;61651;45.508;12.232;2022-08-24T13:25:53;1.52;;;1.42;;
14007;SDS011;61651;45.508;12.232;2022-08-24T13:28:57;3.17;;;1.60;;
14007;SDS011;61651;45.508;12.232;2022-08-24T13:32:01;1.70;;;1.60;;
14007;SDS011;61651;45.508;12.232;2022-08-24T13:38:44;3.28;;;1.80;;
14007;SDS011;61651;45.508;12.232;2022-08-24T13:42:10;1.73;;;1.63;;
14007;SDS011;61651;45.508;12.232;2022-08-24T13:45:23;1.95;;;1.70;;
14007;SDS011;61651;45.508;12.232;2022-08-24T13:48:36;1.88;;;1.70;;
14007;SDS011;61651;45.508;12.232;2022-08-24T13:51:48;1.60;;;1.50;;
14007;SDS011;61651;45.508;12.232;2022-08-24T13:55:05;1.60;;;1.50;;
14007;SDS011;61651;45.508;12.232;2022-08-24T13:58:20;1.35;;;1.27;;
14007;SDS011;61651;45.508;12.232;2022-08-24T14:01:35;1.90;;;1.80;;
14007;SDS011;61651;45.508;12.232;2022-08-24T14:04:44;1.95;;;1.70;;
14007;SDS011;61651;45.508;12.232;2022-08-24T14:07:53;1.75;;;1.50;;
14007;SDS011;61651;45.508;12.232;2022-08-24T14:11:08;2.00;;;1.60;;
14007;SDS011;61651;45.508;12.232;2022-08-24T14:14:19;3.40;;;1.70;;
14007;SDS011;61651;45.508;12.232;2022-08-24T14:17:29;3.05;;;1.63;;
14007;SDS011;61651;45.508;12.232;2022-08-24T14:21:02;3.15;;;1.60;;
14007;SDS011;61651;45.508;12.232;2022-08-24T14:24:10;4.38;;;1.50;;
14007;SDS011;61651;45.508;12.232;2022-08-24T14:27:36;2.38;;;1.50;;
14007;SDS011;61651;45.508;12.232;2022-08-24T14:30:44;1.50;;;1.40;;
14007;SDS011;61651;45.508;12.232;2022-08-24T14:33:52;1.70;;;1.60;;
14007;SDS011;61651;45.508;12.232;2022-08-24T14:37:09;2.08;;;1.58;;
14007;SDS011;61651;45.508;12.232;2022-08-24T14:40:22;4.65;;;1.80;;
14007;SDS011;61651;45.508;12.232;2022-08-24T14:43:30;2.42;;;1.40;;
14007;SDS011;61651;45.508;12.232;2022-08-24T14:46:50;1.63;;;1.52;;
14007;SDS011;61651;45.508;12.232;2022-08-24T14:50:04;4.68;;;1.63;;
14007;SDS011;61651;45.508;12.232;2022-08-24T14:53:16;1.83;;;1.52;;
14007;SDS011;61651;45.508;12.232;2022-08-24T14:56:41;1.77;;;1.60;;
14007;SDS011;61651;45.508;12.232;2022-08-24T14:59:56;3.33;;;1.53;;
14007;SDS011;61651;45.508;12.232;2022-08-24T15:03:09;4.82;;;1.60;;
14007;SDS011;61651;45.508;12.232;2022-08-24T15:06:23;1.90;;;1.45;;
14007;SDS011;61651;45.508;12.232;2022-08-24T15:09:30;1.85;;;1.75;;
14007;SDS011;61651;45.508;12.232;2022-08-24T15:12:37;1.88;;;1.50;;
14007;SDS011;61651;45.508;12.232;2022-08-24T15:15:44;2.65;;;1.58;;
14007;SDS011;61651;45.508;12.232;2022-08-24T15:18:56;3.35;;;2.45;;
14007;SDS011;61651;45.508;12.232;2022-08-24T15:22:05;1.52;;;1.42;;
14007;SDS011;61651;45.508;12.232;2022-08-24T15:25:12;1.65;;;1.55;;
14007;SDS011;61651;45.508;12.232;2022-08-24T15:28:22;2.10;;;1.58;;
14007;SDS011;61651;45.508;12.232;2022-08-24T15:31:27;1.63;;;1.50;;
14007;SDS011;61651;45.508;12.232;2022-08-24T15:34:39;1.75;;;1.65;;
14007;SDS011;61651;45.508;12.232;2022-08-24T15:37:44;4.60;;;1.60;;
14007;SDS011;61651;45.508;12.232;2022-08-24T15:40:48;3.05;;;1.55;;
14007;SDS011;61651;45.508;12.232;2022-08-24T15:43:56;1.80;;;1.70;;
14007;SDS011;61651;45.508;12.232;2022-08-24T15:47:03;2.72;;;1.60;;
14007;SDS011;61651;45.508;12.232;2022-08-24T15:50:19;3.85;;;1.90;;
14007;SDS011;61651;45.508;12.232;2022-08-24T15:53:32;2.92;;;2.25;;
14007;SDS011;61651;45.508;12.232;2022-08-24T15:56:39;2.40;;;1.80;;
14007;SDS011;61651;45.508;12.232;2022-08-24T15:59:45;3.92;;;1.92;;
14007;SDS011;61651;45.508;12.232;2022-08-24T16:02:48;2.80;;;1.80;;
14007;SDS011;61651;45.508;12.232;2022-08-24T16:05:52;1.77;;;1.67;;
14007;SDS011;61651;45.508;12.232;2022-08-24T16:08:57;2.35;;;1.65;;
14007;SDS011;61651;45.508;12.232;2022-08-24T16:12:02;7.60;;;1.88;;
14007;SDS011;61651;45.508;12.232;2022-08-24T16:15:07;2.63;;;1.65;;
14007;SDS011;61651;45.508;12.232;2022-08-24T16:18:16;2.38;;;1.48;;
14007;SDS011;61651;45.508;12.232;2022-08-24T16:21:23;1.60;;;1.50;;
14007;SDS011;61651;45.508;12.232;2022-08-24T16:24:31;3.20;;;1.73;;
14007;SDS011;61651;45.508;12.232;2022-08-24T16:30:54;3.35;;;1.70;;
14007;SDS011;61651;45.508;12.232;2022-08-24T16:34:07;1.95;;;1.65;;
14007;SDS011;61651;45.508;12.232;2022-08-24T16:37:18;2.53;;;1.73;;
14007;SDS011;61651;45.508;12.232;2022-08-24T16:40:21;1.80;;;1.70;;
14007;SDS011;61651;45.508;12.232;2022-08-24T16:43:24;1.88;;;1.70;;
14007;SDS011;61651;45.508;12.232;2022-08-24T16:46:26;1.65;;;1.50;;
14007;SDS011;61651;45.508;12.232;2022-08-24T16:49:28;3.33;;;1.75;;
14007;SDS011;61651;45.508;12.232;2022-08-24T16:52:32;2.55;;;1.83;;
14007;SDS011;61651;45.508;12.232;2022-08-24T16:55:34;2.75;;;1.60;;
14007;SDS011;61651;45.508;12.232;2022-08-24T16:58:36;1.45;;;1.30;;
14007;SDS011;61651;45.508;12.232;2022-08-24T17:01:39;2.40;;;1.65;;
14007;SDS011;61651;45.508;12.232;2022-08-24T17:04:41;1.70;;;1.60;;
14007;SDS011;61651;45.508;12.232;2022-08-24T17:07:45;1.83;;;1.58;;
14007;SDS011;61651;45.508;12.232;2022-08-24T17:10:48;2.95;;;1.90;;
14007;SDS011;61651;45.508;12.232;2022-08-24T17:13:50;1.80;;;1.60;;
14007;SDS011;61651;45.508;12.232;2022-08-24T17:16:52;1.75;;;1.65;;
14007;SDS011;61651;45.508;12.232;2022-08-24T17:19:54;2.33;;;1.90;;
14007;SDS011;61651;45.508;12.232;2022-08-24T17:22:57;1.90;;;1.42;;
14007;SDS011;61651;45.508;12.232;2022-08-24T17:25:59;9.70;;;3.53;;
14007;SDS011;61651;45.508;12.232;2022-08-24T17:29:08;8.75;;;3.40;;
14007;SDS011;61651;45.508;12.232;2022-08-24T17:32:10;2.30;;;2.10;;
14007;SDS011;61651;45.508;12.232;2022-08-24T17:35:14;3.92;;;2.38;;
14007;SDS011;61651;45.508;12.232;2022-08-24T17:38:17;7.03;;;3.63;;
14007;SDS011;61651;45.508;12.232;2022-08-24T17:41:19;5.05;;;1.85;;
14007;SDS011;61651;45.508;12.232;2022-08-24T17:44:22;3.95;;;2.00;;
14007;SDS011;61651;45.508;12.232;2022-08-24T17:47:27;2.67;;;1.70;;
14007;SDS011;61651;45.508;12.232;2022-08-24T17:50:29;3.90;;;2.22;;
14007;SDS011;61651;45.508;12.232;2022-08-24T17:53:32;2.83;;;1.45;;
14007;SDS011;61651;45.508;12.232;2022-08-24T17:56:35;3.28;;;1.58;;
14007;SDS011;61651;45.508;12.232;2022-08-24T17:59:37;4.20;;;2.08;;
14007;SDS011;61651;45.508;12.232;2022-08-24T18:02:40;3.17;;;1.98;;
14007;SDS011;61651;45.508;12.232;2022-08-24T18:05:42;2.55;;;1.77;;
14007;SDS011;61651;45.508;12.232;2022-08-24T18:08:46;2.03;;;1.73;;
14007;SDS011;61651;45.508;12.232;2022-08-24T18:11:49;5.63;;;1.70;;
14007;SDS011;61651;45.508;12.232;2022-08-24T18:14:53;2.85;;;1.80;;
14007;SDS011;61651;45.508;12.232;2022-08-24T18:17:56;2.25;;;1.70;;
14007;SDS011;61651;45.508;12.232;2022-08-24T18:20:58;2.30;;;2.10;;
14007;SDS011;61651;45.508;12.232;2022-08-24T18:24:01;2.10;;;1.90;;
14007;SDS011;61651;45.508;12.232;2022-08-24T18:27:06;1.95;;;1.70;;
14007;SDS011;61651;45.508;12.232;2022-08-24T18:30:12;2.00;;;1.80;;
14007;SDS011;61651;45.508;12.232;2022-08-24T18:33:18;2.90;;;1.70;;
14007;SDS011;61651;45.508;12.232;2022-08-24T18:36:20;1.85;;;1.75;;
14007;SDS011;61651;45.508;12.232;2022-08-24T18:39:24;1.88;;;1.77;;
14007;SDS011;61651;45.508;12.232;2022-08-24T18:42:26;2.00;;;1.90;;
14007;SDS011;61651;45.508;12.232;2022-08-24T18:45:29;2.17;;;2.05;;
14007;SDS011;61651;45.508;12.232;2022-08-24T18:48:33;2.88;;;2.17;;
14007;SDS011;61651;45.508;12.232;2022-08-24T18:51:35;2.30;;;2.10;;
14007;SDS011;61651;45.508;12.232;2022-08-24T18:54:40;2.88;;;2.40;;